Tasman Sea — WDB5559 — position and weather

sailwx.info

Track history (hours):
 
Tides and Currents Weather Stations Pressure Air Temp Water Temp Dewpoint Dewpoint Depression Visibility Wind Speed Wind Dir Waves Ship Positions

Tasman Sea

More information available from US FCC via Universal Licensing System and Coast Guard Vessel Documentation Center.

Last reported at 2014-Jul-22 19:20 UTC. Time now 2014-Jul-24 16:57 UTC.
Position N 40°46' W 074°00'.

Length 38 m; draft 5 m.

Type: Tug. MMSI: 366910960.

Date/timePositionNaut miles runAvg speedWind from/ knotsBaromVisibWave heightAir tempDewpointWater temp
2014-Jul-22 19:20N 40°46' W 074°00'7 8.4
2014-Jul-22 18:33N 40°40' W 074°03'8 8.5
2014-Jul-22 17:33N 40°32' W 074°00'9 8.9
2014-Jul-22 16:33N 40°29' W 073°49'10 9.0
2014-Jul-22 15:28N 40°31' W 073°36'8 9.0
2014-Jul-22 14:33N 40°32' W 073°26'9 9.0
2014-Jul-22 13:33N 40°34' W 073°14'9 9.1
2014-Jul-22 12:33N 40°38' W 073°03'9 9.3
2014-Jul-22 11:33N 40°41' W 072°51'9 9.4
2014-Jul-22 10:33N 40°45' W 072°40'9 9.4
2014-Jul-22 09:33N 40°47' W 072°28'9 9.2
2014-Jul-22 08:33N 40°51' W 072°17'9 9.1
2014-Jul-22 07:33N 40°55' W 072°06'9 9.2
2014-Jul-22 06:33N 40°58' W 071°55'9 9.4
2014-Jul-22 05:33N 41°02' W 071°44'9 9.2
2014-Jul-22 04:33N 41°06' W 071°33'9 9.1
2014-Jul-22 03:33N 41°11' W 071°22'9 8.7
2014-Jul-22 02:33N 41°17' W 071°14'9 8.9
2014-Jul-22 01:33N 41°23' W 071°06'9 9.3
2014-Jul-22 00:33N 41°29' W 070°56'10 9.1
2014-Jul-21 23:29N 41°34' W 070°45'24 6.8
2014-Jul-21 19:59N 41°55' W 070°29'4 7.4
2014-Jul-21 19:27N 41°59' W 070°31'7 7.3
2014-Jul-21 18:29N 42°05' W 070°34'7 7.2
2014-Jul-21 17:27N 42°12' W 070°37'6 6.9
2014-Jul-21 16:33N 42°17' W 070°42'7 6.8
2014-Jul-21 15:31N 42°22' W 070°49'6 6.4
2014-Jul-21 14:31N 42°20' W 070°58'2 0.1
2014-Jul-20 11:33N 42°20' W 070°60'8 5.3
2014-Jul-20 10:08N 42°23' W 070°50'49 3.8
2014-Jul-19 21:21N 41°39' W 071°19'7 8.3
2014-Jul-19 20:32N 41°45' W 071°22'2 0.2
2014-Jul-19 10:23N 41°47' W 071°22'0 0.0
2014-Jul-19 09:33N 41°47' W 071°22'5 4.8
2014-Jul-19 08:33N 41°42' W 071°20'92 6.1
2014-Jul-18 17:27N 40°41' W 072°51'15 6.7
2014-Jul-18 15:12N 40°36' W 073°09'12 6.7
2014-Jul-18 13:24N 40°33' W 073°25'6 6.7
2014-Jul-18 12:34N 40°32' W 073°32'7 6.9
2014-Jul-18 11:30N 40°30' W 073°42'7 7.2
2014-Jul-18 10:28N 40°29' W 073°51'9 8.2
2014-Jul-18 09:25N 40°32' W 074°02'7 8.2
2014-Jul-18 08:33N 40°39' W 074°05'6 5.8
2014-Jul-18 07:33N 40°36' W 074°12'0 0.1
2014-Jul-18 06:33N 40°36' W 074°12'0 0.3
2014-Jul-18 05:33N 40°36' W 074°12'0 0.0
2014-Jul-18 03:30N 40°36' W 074°12'0 0.0
2014-Jul-18 02:22N 40°36' W 074°12'0 0.0
2014-Jul-17 23:26N 40°36' W 074°12'2 1.2
2014-Jul-17 21:33N 40°38' W 074°12'2 1.7
2014-Jul-17 20:33N 40°39' W 074°10'0 0.0
2014-Jul-17 19:33N 40°39' W 074°10'0 0.0
2014-Jul-17 18:25N 40°39' W 074°10'0 0.0
2014-Jul-17 17:33N 40°39' W 074°10'2 1.3
2014-Jul-17 16:17N 40°38' W 074°12'2 2.3
2014-Jul-17 15:33N 40°38' W 074°10'0 0.0
2014-Jul-17 13:22N 40°38' W 074°10'0 0.0
2014-Jul-17 12:33N 40°38' W 074°10'0 0.0
2014-Jul-17 11:32N 40°38' W 074°10'0 0.0
2014-Jul-17 10:32N 40°38' W 074°10'3 3.3
2014-Jul-17 09:33N 40°36' W 074°12'0 0.0
2014-Jul-17 08:32N 40°36' W 074°12'3 1.7
2014-Jul-17 06:33N 40°39' W 074°11'4 3.9
2014-Jul-17 05:33N 40°39' W 074°05'3 2.7
2014-Jul-17 04:33N 40°40' W 074°02'0 0.0
2014-Jul-17 03:33N 40°40' W 074°02'6 1.9
2014-Jul-17 00:20N 40°39' W 074°10'4 5.3
2014-Jul-16 23:33N 40°39' W 074°05'2 1.8
2014-Jul-16 22:33N 40°40' W 074°02'0 0.0
2014-Jul-16 21:33N 40°40' W 074°02'0 0.0
2014-Jul-16 20:33N 40°40' W 074°02'0 0.0
2014-Jul-16 19:33N 40°40' W 074°02'0 0.2
2014-Jul-16 18:33N 40°40' W 074°02'0 0.1
2014-Jul-16 17:33N 40°40' W 074°02'0 0.0
2014-Jul-16 16:33N 40°40' W 074°02'0 0.0
2014-Jul-16 15:33N 40°40' W 074°02'0 0.2
2014-Jul-16 14:33N 40°40' W 074°02'0 0.1
2014-Jul-16 13:33N 40°40' W 074°02'0 0.0
2014-Jul-16 12:33N 40°40' W 074°02'0 0.0
2014-Jul-16 11:33N 40°40' W 074°02'0 0.0
2014-Jul-16 10:33N 40°40' W 074°02'0 0.0
2014-Jul-16 09:33N 40°40' W 074°02'0 0.0
2014-Jul-16 08:33N 40°40' W 074°02'0 0.0
2014-Jul-16 07:33N 40°40' W 074°02'0 0.1
2014-Jul-16 06:33N 40°40' W 074°02'0 0.2
2014-Jul-16 05:33N 40°40' W 074°02'0 0.0
2014-Jul-16 04:33N 40°40' W 074°02'0 0.0
2014-Jul-16 03:33N 40°40' W 074°02'0 0.0
2014-Jul-16 02:33N 40°40' W 074°02'0 0.0
2014-Jul-16 01:33N 40°40' W 074°02'0 0.2
2014-Jul-16 00:33N 40°40' W 074°02'0 0.0
2014-Jul-15 23:33N 40°40' W 074°02'0 0.0
2014-Jul-15 22:33N 40°40' W 074°02'6 2.6
2014-Jul-15 20:17N 40°39' W 074°10'1 0.7
2014-Jul-15 19:33N 40°38' W 074°09'2 1.7
2014-Jul-15 18:32N 40°39' W 074°07'2 0.3
2014-Jul-15 11:33N 40°39' W 074°10'0 0.0
2014-Jul-15 10:17N 40°39' W 074°10'0 0.0
2014-Jul-15 02:18N 40°39' W 074°10'0 0.0
2014-Jul-15 01:23N 40°39' W 074°10'0 0.0
2014-Jul-14 22:32N 40°39' W 074°10'0 0.0
2014-Jul-14 21:32N 40°38' W 074°10'0 0.0
2014-Jul-14 20:33N 40°39' W 074°10'0 0.0
2014-Jul-14 19:33N 40°39' W 074°10'0 0.0
2014-Jul-14 18:33N 40°39' W 074°10'0 0.0
2014-Jul-14 17:33N 40°38' W 074°10'3 3.1
2014-Jul-14 16:33N 40°39' W 074°06'1 0.6
2014-Jul-14 15:33N 40°39' W 074°07'0 0.0
2014-Jul-14 14:33N 40°39' W 074°07'0 0.0
2014-Jul-14 13:33N 40°39' W 074°07'0 0.0
2014-Jul-14 12:33N 40°39' W 074°07'0 0.0
2014-Jul-14 11:33N 40°39' W 074°07'0 0.0
2014-Jul-14 10:33N 40°39' W 074°07'3 3.3
2014-Jul-14 09:33N 40°40' W 074°02'0 0.0
2014-Jul-14 08:33N 40°40' W 074°02'0 0.0
2014-Jul-14 07:33N 40°40' W 074°02'0 0.0
2014-Jul-14 06:33N 40°40' W 074°02'0 0.0
2014-Jul-14 05:33N 40°40' W 074°02'0 0.1
2014-Jul-14 04:33N 40°40' W 074°02'0 0.2
2014-Jul-14 03:33N 40°40' W 074°02'0 0.0
2014-Jul-14 02:33N 40°40' W 074°02'0 0.0
2014-Jul-14 01:33N 40°40' W 074°02'0 0.0
2014-Jul-14 00:33N 40°40' W 074°02'3 3.2
2014-Jul-13 23:33N 40°37' W 074°03'1010.0
2014-Jul-13 22:33N 40°29' W 073°54'9 8.6
2014-Jul-13 21:33N 40°30' W 073°43'8 8.3
2014-Jul-13 20:33N 40°31' W 073°32'8 8.3
2014-Jul-13 19:33N 40°32' W 073°22'8 8.5
2014-Jul-13 18:33N 40°35' W 073°11'9 8.6
2014-Jul-13 17:33N 40°38' W 073°01'9 9.0
2014-Jul-13 16:33N 40°42' W 072°50'9 9.1
2014-Jul-13 15:33N 40°45' W 072°38'9 9.0
2014-Jul-13 14:33N 40°48' W 072°27'9 8.8
2014-Jul-13 13:33N 40°52' W 072°17'9 8.7
2014-Jul-13 12:33N 40°55' W 072°06'9 9.3
2014-Jul-13 11:33N 40°59' W 071°55'9 8.8
2014-Jul-13 10:33N 41°02' W 071°44'9 9.3
2014-Jul-13 09:33N 41°06' W 071°33'10 9.5
2014-Jul-13 08:33N 41°10' W 071°21'9 9.4
2014-Jul-13 07:33N 41°18' W 071°13'10 9.9
2014-Jul-13 06:33N 41°24' W 071°04'10 9.9
2014-Jul-13 05:33N 41°30' W 070°53'10 9.6
2014-Jul-13 04:33N 41°36' W 070°43'9 9.0
2014-Jul-13 03:34N 41°44' W 070°38'8 7.9
2014-Jul-13 02:34N 41°48' W 070°28'8 8.3
2014-Jul-13 01:33N 41°56' W 070°30'8 8.1
2014-Jul-13 00:33N 42°04' W 070°33'  
Track history (hours):
 
Tides and Currents Weather Stations Pressure Air Temp Water Temp Dewpoint Dewpoint Depression Visibility Wind Speed Wind Dir Waves Ship Positions

Tasman Sea

More information available from US FCC via Universal Licensing System and Coast Guard Vessel Documentation Center.

Last reported at 2014-Jul-22 19:20 UTC. Time now 2014-Jul-24 16:57 UTC.
Position N 40°46' W 074°00'.

Length 38 m; draft 5 m.

Type: Tug. MMSI: 366910960.

Date/timePositionNaut miles runAvg speedWind from/ knotsBaromVisibWave heightAir tempDewpointWater temp
2014-Jul-22 19:20N 40°46' W 074°00'7 8.4
2014-Jul-22 18:33N 40°40' W 074°03'8 8.5
2014-Jul-22 17:33N 40°32' W 074°00'9 8.9
2014-Jul-22 16:33N 40°29' W 073°49'10 9.0
2014-Jul-22 15:28N 40°31' W 073°36'8 9.0
2014-Jul-22 14:33N 40°32' W 073°26'9 9.0
2014-Jul-22 13:33N 40°34' W 073°14'9 9.1
2014-Jul-22 12:33N 40°38' W 073°03'9 9.3
2014-Jul-22 11:33N 40°41' W 072°51'9 9.4
2014-Jul-22 10:33N 40°45' W 072°40'9 9.4
2014-Jul-22 09:33N 40°47' W 072°28'9 9.2
2014-Jul-22 08:33N 40°51' W 072°17'9 9.1
2014-Jul-22 07:33N 40°55' W 072°06'9 9.2
2014-Jul-22 06:33N 40°58' W 071°55'9 9.4
2014-Jul-22 05:33N 41°02' W 071°44'9 9.2
2014-Jul-22 04:33N 41°06' W 071°33'9 9.1
2014-Jul-22 03:33N 41°11' W 071°22'9 8.7
2014-Jul-22 02:33N 41°17' W 071°14'9 8.9
2014-Jul-22 01:33N 41°23' W 071°06'9 9.3
2014-Jul-22 00:33N 41°29' W 070°56'10 9.1
2014-Jul-21 23:29N 41°34' W 070°45'24 6.8
2014-Jul-21 19:59N 41°55' W 070°29'4 7.4
2014-Jul-21 19:27N 41°59' W 070°31'7 7.3
2014-Jul-21 18:29N 42°05' W 070°34'7 7.2
2014-Jul-21 17:27N 42°12' W 070°37'6 6.9
2014-Jul-21 16:33N 42°17' W 070°42'7 6.8
2014-Jul-21 15:31N 42°22' W 070°49'6 6.4
2014-Jul-21 14:31N 42°20' W 070°58'2 0.1
2014-Jul-20 11:33N 42°20' W 070°60'8 5.3
2014-Jul-20 10:08N 42°23' W 070°50'49 3.8
2014-Jul-19 21:21N 41°39' W 071°19'7 8.3
2014-Jul-19 20:32N 41°45' W 071°22'2 0.2
2014-Jul-19 10:23N 41°47' W 071°22'0 0.0
2014-Jul-19 09:33N 41°47' W 071°22'5 4.8
2014-Jul-19 08:33N 41°42' W 071°20'92 6.1
2014-Jul-18 17:27N 40°41' W 072°51'15 6.7
2014-Jul-18 15:12N 40°36' W 073°09'12 6.7
2014-Jul-18 13:24N 40°33' W 073°25'6 6.7
2014-Jul-18 12:34N 40°32' W 073°32'7 6.9
2014-Jul-18 11:30N 40°30' W 073°42'7 7.2
2014-Jul-18 10:28N 40°29' W 073°51'9 8.2
2014-Jul-18 09:25N 40°32' W 074°02'7 8.2
2014-Jul-18 08:33N 40°39' W 074°05'6 5.8
2014-Jul-18 07:33N 40°36' W 074°12'0 0.1
2014-Jul-18 06:33N 40°36' W 074°12'0 0.3
2014-Jul-18 05:33N 40°36' W 074°12'0 0.0
2014-Jul-18 03:30N 40°36' W 074°12'0 0.0
2014-Jul-18 02:22N 40°36' W 074°12'0 0.0
2014-Jul-17 23:26N 40°36' W 074°12'2 1.2
2014-Jul-17 21:33N 40°38' W 074°12'2 1.7
2014-Jul-17 20:33N 40°39' W 074°10'0 0.0
2014-Jul-17 19:33N 40°39' W 074°10'0 0.0
2014-Jul-17 18:25N 40°39' W 074°10'0 0.0
2014-Jul-17 17:33N 40°39' W 074°10'2 1.3
2014-Jul-17 16:17N 40°38' W 074°12'2 2.3
2014-Jul-17 15:33N 40°38' W 074°10'0 0.0
2014-Jul-17 13:22N 40°38' W 074°10'0 0.0
2014-Jul-17 12:33N 40°38' W 074°10'0 0.0
2014-Jul-17 11:32N 40°38' W 074°10'0 0.0
2014-Jul-17 10:32N 40°38' W 074°10'3 3.3
2014-Jul-17 09:33N 40°36' W 074°12'0 0.0
2014-Jul-17 08:32N 40°36' W 074°12'3 1.7
2014-Jul-17 06:33N 40°39' W 074°11'4 3.9
2014-Jul-17 05:33N 40°39' W 074°05'3 2.7
2014-Jul-17 04:33N 40°40' W 074°02'0 0.0
2014-Jul-17 03:33N 40°40' W 074°02'6 1.9
2014-Jul-17 00:20N 40°39' W 074°10'4 5.3
2014-Jul-16 23:33N 40°39' W 074°05'2 1.8
2014-Jul-16 22:33N 40°40' W 074°02'0 0.0
2014-Jul-16 21:33N 40°40' W 074°02'0 0.0
2014-Jul-16 20:33N 40°40' W 074°02'0 0.0
2014-Jul-16 19:33N 40°40' W 074°02'0 0.2
2014-Jul-16 18:33N 40°40' W 074°02'0 0.1
2014-Jul-16 17:33N 40°40' W 074°02'0 0.0
2014-Jul-16 16:33N 40°40' W 074°02'0 0.0
2014-Jul-16 15:33N 40°40' W 074°02'0 0.2
2014-Jul-16 14:33N 40°40' W 074°02'0 0.1
2014-Jul-16 13:33N 40°40' W 074°02'0 0.0
2014-Jul-16 12:33N 40°40' W 074°02'0 0.0
2014-Jul-16 11:33N 40°40' W 074°02'0 0.0
2014-Jul-16 10:33N 40°40' W 074°02'0 0.0
2014-Jul-16 09:33N 40°40' W 074°02'0 0.0
2014-Jul-16 08:33N 40°40' W 074°02'0 0.0
2014-Jul-16 07:33N 40°40' W 074°02'0 0.1
2014-Jul-16 06:33N 40°40' W 074°02'0 0.2
2014-Jul-16 05:33N 40°40' W 074°02'0 0.0
2014-Jul-16 04:33N 40°40' W 074°02'0 0.0
2014-Jul-16 03:33N 40°40' W 074°02'0 0.0
2014-Jul-16 02:33N 40°40' W 074°02'0 0.0
2014-Jul-16 01:33N 40°40' W 074°02'0 0.2
2014-Jul-16 00:33N 40°40' W 074°02'0 0.0
2014-Jul-15 23:33N 40°40' W 074°02'0 0.0
2014-Jul-15 22:33N 40°40' W 074°02'6 2.6
2014-Jul-15 20:17N 40°39' W 074°10'1 0.7
2014-Jul-15 19:33N 40°38' W 074°09'2 1.7
2014-Jul-15 18:32N 40°39' W 074°07'2 0.3
2014-Jul-15 11:33N 40°39' W 074°10'0 0.0
2014-Jul-15 10:17N 40°39' W 074°10'0 0.0
2014-Jul-15 02:18N 40°39' W 074°10'0 0.0
2014-Jul-15 01:23N 40°39' W 074°10'0 0.0
2014-Jul-14 22:32N 40°39' W 074°10'0 0.0
2014-Jul-14 21:32N 40°38' W 074°10'0 0.0
2014-Jul-14 20:33N 40°39' W 074°10'0 0.0
2014-Jul-14 19:33N 40°39' W 074°10'0 0.0
2014-Jul-14 18:33N 40°39' W 074°10'0 0.0
2014-Jul-14 17:33N 40°38' W 074°10'3 3.1
2014-Jul-14 16:33N 40°39' W 074°06'1 0.6
2014-Jul-14 15:33N 40°39' W 074°07'0 0.0
2014-Jul-14 14:33N 40°39' W 074°07'0 0.0
2014-Jul-14 13:33N 40°39' W 074°07'0 0.0
2014-Jul-14 12:33N 40°39' W 074°07'0 0.0
2014-Jul-14 11:33N 40°39' W 074°07'0 0.0
2014-Jul-14 10:33N 40°39' W 074°07'3 3.3
2014-Jul-14 09:33N 40°40' W 074°02'0 0.0
2014-Jul-14 08:33N 40°40' W 074°02'0 0.0
2014-Jul-14 07:33N 40°40' W 074°02'0 0.0
2014-Jul-14 06:33N 40°40' W 074°02'0 0.0
2014-Jul-14 05:33N 40°40' W 074°02'0 0.1
2014-Jul-14 04:33N 40°40' W 074°02'0 0.2
2014-Jul-14 03:33N 40°40' W 074°02'0 0.0
2014-Jul-14 02:33N 40°40' W 074°02'0 0.0
2014-Jul-14 01:33N 40°40' W 074°02'0 0.0
2014-Jul-14 00:33N 40°40' W 074°02'3 3.2
2014-Jul-13 23:33N 40°37' W 074°03'1010.0
2014-Jul-13 22:33N 40°29' W 073°54'9 8.6
2014-Jul-13 21:33N 40°30' W 073°43'8 8.3
2014-Jul-13 20:33N 40°31' W 073°32'8 8.3
2014-Jul-13 19:33N 40°32' W 073°22'8 8.5
2014-Jul-13 18:33N 40°35' W 073°11'9 8.6
2014-Jul-13 17:33N 40°38' W 073°01'9 9.0
2014-Jul-13 16:33N 40°42' W 072°50'9 9.1
2014-Jul-13 15:33N 40°45' W 072°38'9 9.0
2014-Jul-13 14:33N 40°48' W 072°27'9 8.8
2014-Jul-13 13:33N 40°52' W 072°17'9 8.7
2014-Jul-13 12:33N 40°55' W 072°06'9 9.3
2014-Jul-13 11:33N 40°59' W 071°55'9 8.8
2014-Jul-13 10:33N 41°02' W 071°44'9 9.3
2014-Jul-13 09:33N 41°06' W 071°33'10 9.5
2014-Jul-13 08:33N 41°10' W 071°21'9 9.4
2014-Jul-13 07:33N 41°18' W 071°13'10 9.9
2014-Jul-13 06:33N 41°24' W 071°04'10 9.9
2014-Jul-13 05:33N 41°30' W 070°53'10 9.6
2014-Jul-13 04:33N 41°36' W 070°43'9 9.0
2014-Jul-13 03:34N 41°44' W 070°38'8 7.9
2014-Jul-13 02:34N 41°48' W 070°28'8 8.3
2014-Jul-13 01:33N 41°56' W 070°30'8 8.1
2014-Jul-13 00:33N 42°04' W 070°33'  

Dump ship's entire track history